createdAt,value
2022-09-27T00:04:40.701Z,97.37
2022-09-27T00:10:42.602Z,97.34
2022-09-27T00:16:46.724Z,97.79
2022-09-27T00:29:19.516Z,98.21
2022-09-27T00:35:21.452Z,98.33
2022-09-27T00:41:34.143Z,97.49
2022-09-27T00:47:48.647Z,97.84
2022-09-27T00:53:54.168Z,98.46
2022-09-27T01:00:09.891Z,98.92
2022-09-27T01:06:12.512Z,99.50
2022-09-27T01:12:30.301Z,99.55
2022-09-27T01:19:20.549Z,98.96
2022-09-27T01:26:09.840Z,99.49
2022-09-27T01:32:35.917Z,99.44
2022-09-27T01:38:47.952Z,99.99
2022-09-27T01:45:01.213Z,100.00
2022-09-27T01:51:14.594Z,99.96
2022-09-27T01:57:23.431Z,100.00
2022-09-27T02:03:37.528Z,100.00
2022-09-27T02:09:51.502Z,100.00
2022-09-27T02:16:33.886Z,100.00
2022-09-27T02:22:56.888Z,100.00
2022-09-27T02:29:05.189Z,100.00
2022-09-27T02:35:24.859Z,100.00
2022-09-27T02:41:26.863Z,100.00
2022-09-27T02:47:50.212Z,100.00
2022-09-27T02:54:33.777Z,100.00
2022-09-27T03:00:57.950Z,100.00
2022-09-27T03:07:01.519Z,100.00
2022-09-27T03:13:04.929Z,100.00
2022-09-27T03:19:10.330Z,100.00
2022-09-27T03:25:12.311Z,100.00
2022-09-27T03:31:17.595Z,100.00
2022-09-27T03:37:19.620Z,100.00
2022-09-27T03:43:25.216Z,100.00
2022-09-27T03:49:29.943Z,100.00
2022-09-27T03:55:37.672Z,100.00
2022-09-27T04:01:43.355Z,100.00
2022-09-27T04:07:57.802Z,100.00
2022-09-27T04:13:59.726Z,100.00
2022-09-27T04:20:03.482Z,100.00
2022-09-27T04:26:05.855Z,100.00
2022-09-27T04:32:07.765Z,100.00
2022-09-27T04:38:09.676Z,100.00
2022-09-27T04:44:11.686Z,100.00
2022-09-27T04:50:15.289Z,100.00
2022-09-27T04:56:17.354Z,100.00
2022-09-27T05:02:19.467Z,100.00
2022-09-27T05:08:21.680Z,100.00
2022-09-27T05:14:23.649Z,100.00
2022-09-27T05:20:26.110Z,100.00
2022-09-27T05:26:28.043Z,100.00
2022-09-27T05:32:30.021Z,100.00
2022-09-27T05:38:32.141Z,100.00
2022-09-27T05:44:35.342Z,100.00
2022-09-27T05:50:37.279Z,100.00
2022-09-27T05:56:39.215Z,100.00
2022-09-27T06:02:48.987Z,100.00
2022-09-27T06:08:51.097Z,100.00
2022-09-27T06:14:53.235Z,100.00
2022-09-27T06:20:55.490Z,100.00
2022-09-27T06:26:57.440Z,100.00
2022-09-27T06:33:01.889Z,100.00
2022-09-27T06:39:04.167Z,100.00
2022-09-27T06:45:06.797Z,100.00
2022-09-27T06:51:08.750Z,100.00
2022-09-27T06:57:30.804Z,100.00
2022-09-27T07:03:40.133Z,100.00
2022-09-27T07:09:43.263Z,100.00
2022-09-27T07:15:45.303Z,100.00
2022-09-27T07:21:50.371Z,100.00
2022-09-27T07:27:54.335Z,100.00
2022-09-27T07:33:56.668Z,100.00
2022-09-27T07:40:01.976Z,100.00
2022-09-27T07:46:07.989Z,100.00
2022-09-27T07:52:13.149Z,99.99
2022-09-27T07:58:15.059Z,98.30
2022-09-27T08:04:16.978Z,97.75
2022-09-27T08:10:23.785Z,98.44
2022-09-27T08:22:43.602Z,93.14
2022-09-27T08:28:48.404Z,91.69
2022-09-27T08:34:50.331Z,91.23
2022-09-27T08:41:01.520Z,90.14
2022-09-27T08:47:21.647Z,86.46
2022-09-27T08:53:38.146Z,77.88
2022-09-27T09:00:00.881Z,69.93
2022-09-27T09:06:17.903Z,74.95
2022-09-27T09:12:57.212Z,74.36
2022-09-27T09:27:09.290Z,77.04
2022-09-27T09:33:41.342Z,73.12
2022-09-27T09:39:51.382Z,70.17
2022-09-27T09:46:14.564Z,71.48
2022-09-27T09:52:23.625Z,72.00
2022-09-27T09:58:42.809Z,73.65
2022-09-27T10:11:01.503Z,76.25
2022-09-27T10:17:10.907Z,76.75
2022-09-27T10:23:21.476Z,77.82
2022-09-27T10:29:37.862Z,74.45
2022-09-27T10:35:45.006Z,75.66
2022-09-27T10:41:49.514Z,76.13
2022-09-27T10:47:55.047Z,76.76
2022-09-27T10:54:03.434Z,76.17
2022-09-27T11:06:23.848Z,56.02
2022-09-27T11:12:25.817Z,56.63
2022-09-27T11:18:39.539Z,57.22
2022-09-27T11:25:31.551Z,55.38
2022-09-27T11:31:55.565Z,62.01
2022-09-27T11:38:12.297Z,60.13
2022-09-27T11:52:06.296Z,56.85
2022-09-27T11:58:40.460Z,58.80
2022-09-27T12:05:13.255Z,62.47
2022-09-27T12:11:51.584Z,65.80
2022-09-27T12:18:08.070Z,67.93
2022-09-27T12:24:21.812Z,68.62
2022-09-27T12:30:23.827Z,76.65
2022-09-27T12:36:38.878Z,83.51
2022-09-27T12:43:11.170Z,85.50
2022-09-27T12:49:42.524Z,81.39
2022-09-27T12:56:06.580Z,81.91
2022-09-27T13:02:39.150Z,86.58
2022-09-27T13:09:00.609Z,82.55
2022-09-27T13:15:30.717Z,83.07
2022-09-27T13:22:00.060Z,78.96
2022-09-27T13:28:02.657Z,75.86
2022-09-27T13:34:04.911Z,78.00
2022-09-27T13:40:15.973Z,81.32
2022-09-27T13:46:23.302Z,80.09
2022-09-27T13:52:56.451Z,77.14
2022-09-27T13:59:02.654Z,79.17
2022-09-27T14:05:11.103Z,79.14
2022-09-27T14:11:21.525Z,78.50
2022-09-27T14:17:26.088Z,78.25
2022-09-27T14:23:34.702Z,79.76
2022-09-27T14:29:47.851Z,78.35
2022-09-27T14:36:08.827Z,78.72
2022-09-27T14:43:39.126Z,80.83
2022-09-27T14:50:01.450Z,81.37
2022-09-27T14:56:04.406Z,78.84
2022-09-27T15:02:20.319Z,80.57
2022-09-27T15:08:25.601Z,73.95
2022-09-27T15:14:32.928Z,75.89
2022-09-27T15:20:35.901Z,76.97
2022-09-27T15:26:47.329Z,77.88
2022-09-27T15:32:53.052Z,77.77
2022-09-27T15:39:12.227Z,79.16
2022-09-27T15:45:49.128Z,80.01
2022-09-27T16:05:03.437Z,80.70
2022-09-27T16:11:05.724Z,83.69
2022-09-27T16:17:07.636Z,84.95
2022-09-27T16:23:09.655Z,84.15
2022-09-27T16:29:14.348Z,84.30
2022-09-27T16:35:18.925Z,85.89
2022-09-27T16:41:22.359Z,87.53
2022-09-27T16:47:24.275Z,87.43
2022-09-27T16:53:26.213Z,89.34
2022-09-27T16:59:34.525Z,89.72
2022-09-27T17:05:39.583Z,89.39
2022-09-27T17:11:46.820Z,89.94
2022-09-27T17:17:53.281Z,90.62
2022-09-27T17:23:56.206Z,90.42
2022-09-27T17:29:58.686Z,90.08
2022-09-27T17:36:09.528Z,89.41
2022-09-27T17:42:12.580Z,89.70
2022-09-27T17:48:36.519Z,89.80
2022-09-27T17:54:38.790Z,90.39
2022-09-27T18:00:41.185Z,91.74
2022-09-27T18:06:46.299Z,90.82
2022-09-27T18:12:50.688Z,91.80
2022-09-27T18:19:03.220Z,92.57
2022-09-27T18:25:09.390Z,92.01
2022-09-27T18:31:16.931Z,92.51
2022-09-27T18:37:19.641Z,92.38
2022-09-27T18:43:26.835Z,92.78
2022-09-27T18:49:34.195Z,93.51
2022-09-27T18:55:49.006Z,93.49
2022-09-27T19:01:54.251Z,93.46
2022-09-27T19:07:56.262Z,93.64
2022-09-27T19:13:59.938Z,93.39
2022-09-27T19:20:02.876Z,93.18
2022-09-27T19:26:08.601Z,93.00
2022-09-27T19:32:10.568Z,92.97
2022-09-27T19:38:36.429Z,92.64
2022-09-27T19:44:38.296Z,92.92
2022-09-27T19:50:40.212Z,93.09
2022-09-27T19:56:42.133Z,92.31
2022-09-27T20:02:55.508Z,92.24
2022-09-27T20:15:44.339Z,93.48
2022-09-27T20:21:46.356Z,93.48
2022-09-27T20:27:48.263Z,94.25
2022-09-27T20:33:51.019Z,93.49
2022-09-27T20:39:53.545Z,94.62
2022-09-27T20:52:33.778Z,94.84
2022-09-27T20:58:35.645Z,94.21
2022-09-27T21:04:37.871Z,93.86
2022-09-27T21:10:42.259Z,94.29
2022-09-27T21:16:45.097Z,93.50
2022-09-27T21:23:06.244Z,93.94
2022-09-27T21:29:11.664Z,93.96
2022-09-27T21:35:18.475Z,94.03
2022-09-27T21:47:45.009Z,93.04
2022-09-27T21:54:09.572Z,92.85
2022-09-27T22:00:14.953Z,93.60
2022-09-27T22:06:27.477Z,94.61
2022-09-27T22:12:32.218Z,95.17
2022-09-27T22:18:37.347Z,94.90
2022-09-27T22:24:39.265Z,94.39
2022-09-27T22:30:41.208Z,94.59
2022-09-27T22:36:46.117Z,94.80
2022-09-27T22:49:07.278Z,95.29
2022-09-27T22:55:09.669Z,93.58
2022-09-27T23:01:19.577Z,94.18
2022-09-27T23:07:21.777Z,94.34
2022-09-27T23:13:23.864Z,94.36
2022-09-27T23:19:26.916Z,94.27
2022-09-27T23:25:28.975Z,93.78
2022-09-27T23:31:32.757Z,94.09
2022-09-27T23:37:34.764Z,92.90
2022-09-27T23:43:37.026Z,93.47
2022-09-27T23:49:38.909Z,93.64
2022-09-27T23:55:40.794Z,92.83
